sensor_id;sensor_type;location;lat;lon;timestamp;P1;durP1;ratioP1;P2;durP2;ratioP2
9914;SDS011;4996;48.746;9.174;2022-10-17T00:00:46;5.70;;;2.23;;
9914;SDS011;4996;48.746;9.174;2022-10-17T00:03:11;3.47;;;2.20;;
9914;SDS011;4996;48.746;9.174;2022-10-17T00:05:38;2.63;;;2.43;;
9914;SDS011;4996;48.746;9.174;2022-10-17T00:08:08;7.90;;;2.60;;
9914;SDS011;4996;48.746;9.174;2022-10-17T00:10:35;2.33;;;2.00;;
9914;SDS011;4996;48.746;9.174;2022-10-17T00:13:00;5.03;;;2.50;;
9914;SDS011;4996;48.746;9.174;2022-10-17T00:15:26;2.90;;;1.97;;
9914;SDS011;4996;48.746;9.174;2022-10-17T00:17:51;2.67;;;2.13;;
9914;SDS011;4996;48.746;9.174;2022-10-17T00:20:17;2.90;;;2.20;;
9914;SDS011;4996;48.746;9.174;2022-10-17T00:22:43;3.00;;;2.00;;
9914;SDS011;4996;48.746;9.174;2022-10-17T00:25:08;2.90;;;1.97;;
9914;SDS011;4996;48.746;9.174;2022-10-17T00:27:35;3.27;;;2.73;;
9914;SDS011;4996;48.746;9.174;2022-10-17T00:30:05;5.50;;;2.43;;
9914;SDS011;4996;48.746;9.174;2022-10-17T00:32:34;5.80;;;2.50;;
9914;SDS011;4996;48.746;9.174;2022-10-17T00:35:00;6.80;;;2.33;;
9914;SDS011;4996;48.746;9.174;2022-10-17T00:37:26;1.93;;;1.70;;
9914;SDS011;4996;48.746;9.174;2022-10-17T00:39:52;6.20;;;2.60;;
9914;SDS011;4996;48.746;9.174;2022-10-17T00:42:17;4.60;;;2.40;;
9914;SDS011;4996;48.746;9.174;2022-10-17T00:47:12;3.70;;;2.97;;
9914;SDS011;4996;48.746;9.174;2022-10-17T00:49:40;5.53;;;2.20;;
9914;SDS011;4996;48.746;9.174;2022-10-17T00:52:14;2.67;;;2.10;;
9914;SDS011;4996;48.746;9.174;2022-10-17T00:54:50;2.50;;;1.90;;
9914;SDS011;4996;48.746;9.174;2022-10-17T00:57:24;8.90;;;3.07;;
9914;SDS011;4996;48.746;9.174;2022-10-17T00:59:51;2.40;;;2.00;;
9914;SDS011;4996;48.746;9.174;2022-10-17T01:02:20;6.63;;;2.43;;
9914;SDS011;4996;48.746;9.174;2022-10-17T01:04:47;2.43;;;1.90;;
9914;SDS011;4996;48.746;9.174;2022-10-17T01:07:15;3.57;;;2.03;;
9914;SDS011;4996;48.746;9.174;2022-10-17T01:09:41;2.53;;;1.93;;
9914;SDS011;4996;48.746;9.174;2022-10-17T01:23:09;2.53;;;2.10;;
9914;SDS011;4996;48.746;9.174;2022-10-17T01:25:51;3.30;;;2.30;;
9914;SDS011;4996;48.746;9.174;2022-10-17T01:28:57;3.77;;;2.33;;
9914;SDS011;4996;48.746;9.174;2022-10-17T01:32:22;2.20;;;2.00;;
9914;SDS011;4996;48.746;9.174;2022-10-17T01:39:51;5.03;;;2.17;;
9914;SDS011;4996;48.746;9.174;2022-10-17T01:48:03;5.00;;;2.27;;
9914;SDS011;4996;48.746;9.174;2022-10-17T01:50:33;2.60;;;1.80;;
9914;SDS011;4996;48.746;9.174;2022-10-17T01:53:04;9.17;;;2.40;;
9914;SDS011;4996;48.746;9.174;2022-10-17T01:55:36;3.47;;;1.40;;
9914;SDS011;4996;48.746;9.174;2022-10-17T01:58:06;5.10;;;2.00;;
9914;SDS011;4996;48.746;9.174;2022-10-17T02:00:36;3.00;;;2.03;;
9914;SDS011;4996;48.746;9.174;2022-10-17T02:03:05;4.73;;;2.10;;
9914;SDS011;4996;48.746;9.174;2022-10-17T02:05:39;6.63;;;2.10;;
9914;SDS011;4996;48.746;9.174;2022-10-17T02:08:06;2.70;;;2.00;;
9914;SDS011;4996;48.746;9.174;2022-10-17T02:10:35;13.93;;;2.40;;
9914;SDS011;4996;48.746;9.174;2022-10-17T02:19:05;4.70;;;1.70;;
9914;SDS011;4996;48.746;9.174;2022-10-17T02:32:57;3.33;;;2.03;;
9914;SDS011;4996;48.746;9.174;2022-10-17T02:35:27;4.60;;;2.07;;
9914;SDS011;4996;48.746;9.174;2022-10-17T02:37:56;4.80;;;2.30;;
9914;SDS011;4996;48.746;9.174;2022-10-17T02:40:23;3.20;;;2.20;;
9914;SDS011;4996;48.746;9.174;2022-10-17T02:42:51;3.30;;;2.03;;
9914;SDS011;4996;48.746;9.174;2022-10-17T02:45:18;4.83;;;2.23;;
9914;SDS011;4996;48.746;9.174;2022-10-17T02:47:49;2.73;;;2.10;;
9914;SDS011;4996;48.746;9.174;2022-10-17T02:50:26;5.63;;;2.03;;
9914;SDS011;4996;48.746;9.174;2022-10-17T02:52:58;6.13;;;2.77;;
9914;SDS011;4996;48.746;9.174;2022-10-17T02:55:30;2.93;;;2.00;;
9914;SDS011;4996;48.746;9.174;2022-10-17T02:58:04;2.83;;;2.30;;
9914;SDS011;4996;48.746;9.174;2022-10-17T03:00:34;3.53;;;2.00;;
9914;SDS011;4996;48.746;9.174;2022-10-17T03:03:09;6.43;;;2.30;;
9914;SDS011;4996;48.746;9.174;2022-10-17T03:05:43;3.87;;;2.00;;
9914;SDS011;4996;48.746;9.174;2022-10-17T03:08:09;3.20;;;2.83;;
9914;SDS011;4996;48.746;9.174;2022-10-17T03:10:35;2.40;;;2.20;;
9914;SDS011;4996;48.746;9.174;2022-10-17T03:13:01;2.37;;;1.60;;
9914;SDS011;4996;48.746;9.174;2022-10-17T03:15:26;3.00;;;2.27;;
9914;SDS011;4996;48.746;9.174;2022-10-17T03:17:52;4.10;;;2.10;;
9914;SDS011;4996;48.746;9.174;2022-10-17T03:20:17;2.37;;;2.10;;
9914;SDS011;4996;48.746;9.174;2022-10-17T03:22:43;5.20;;;2.60;;
9914;SDS011;4996;48.746;9.174;2022-10-17T03:25:08;8.10;;;2.50;;
9914;SDS011;4996;48.746;9.174;2022-10-17T03:27:34;5.43;;;1.80;;
9914;SDS011;4996;48.746;9.174;2022-10-17T03:29:59;9.30;;;2.40;;
9914;SDS011;4996;48.746;9.174;2022-10-17T03:32:25;5.30;;;2.03;;
9914;SDS011;4996;48.746;9.174;2022-10-17T03:34:50;6.83;;;2.17;;
9914;SDS011;4996;48.746;9.174;2022-10-17T03:37:16;2.57;;;2.27;;
9914;SDS011;4996;48.746;9.174;2022-10-17T03:39:41;2.03;;;1.80;;
9914;SDS011;4996;48.746;9.174;2022-10-17T03:42:07;4.63;;;1.87;;
9914;SDS011;4996;48.746;9.174;2022-10-17T03:44:32;2.80;;;2.10;;
9914;SDS011;4996;48.746;9.174;2022-10-17T03:46:58;1.87;;;1.67;;
9914;SDS011;4996;48.746;9.174;2022-10-17T03:49:24;2.63;;;1.90;;
9914;SDS011;4996;48.746;9.174;2022-10-17T03:51:49;6.60;;;2.23;;
9914;SDS011;4996;48.746;9.174;2022-10-17T03:54:15;5.10;;;1.93;;
9914;SDS011;4996;48.746;9.174;2022-10-17T03:56:40;4.10;;;2.20;;
9914;SDS011;4996;48.746;9.174;2022-10-17T03:59:08;3.40;;;2.30;;
9914;SDS011;4996;48.746;9.174;2022-10-17T04:01:37;6.40;;;1.90;;
9914;SDS011;4996;48.746;9.174;2022-10-17T04:04:02;2.13;;;1.80;;
9914;SDS011;4996;48.746;9.174;2022-10-17T04:06:28;4.30;;;2.10;;
9914;SDS011;4996;48.746;9.174;2022-10-17T04:08:53;4.63;;;2.33;;
9914;SDS011;4996;48.746;9.174;2022-10-17T04:11:19;6.07;;;2.40;;
9914;SDS011;4996;48.746;9.174;2022-10-17T04:13:45;4.43;;;2.30;;
9914;SDS011;4996;48.746;9.174;2022-10-17T04:16:15;2.83;;;2.30;;
9914;SDS011;4996;48.746;9.174;2022-10-17T04:18:41;6.33;;;2.80;;
9914;SDS011;4996;48.746;9.174;2022-10-17T04:21:08;11.90;;;2.20;;
9914;SDS011;4996;48.746;9.174;2022-10-17T04:23:34;7.03;;;2.10;;
9914;SDS011;4996;48.746;9.174;2022-10-17T04:26:00;2.17;;;1.97;;
9914;SDS011;4996;48.746;9.174;2022-10-17T04:28:27;2.40;;;1.93;;
9914;SDS011;4996;48.746;9.174;2022-10-17T04:33:26;5.20;;;3.30;;
9914;SDS011;4996;48.746;9.174;2022-10-17T04:36:01;4.00;;;1.60;;
9914;SDS011;4996;48.746;9.174;2022-10-17T04:38:29;8.83;;;2.70;;
9914;SDS011;4996;48.746;9.174;2022-10-17T04:40:58;8.40;;;2.50;;
9914;SDS011;4996;48.746;9.174;2022-10-17T04:43:30;5.50;;;2.10;;
9914;SDS011;4996;48.746;9.174;2022-10-17T04:45:59;4.63;;;2.00;;
9914;SDS011;4996;48.746;9.174;2022-10-17T04:48:27;8.63;;;2.30;;
9914;SDS011;4996;48.746;9.174;2022-10-17T04:50:57;6.00;;;2.33;;
9914;SDS011;4996;48.746;9.174;2022-10-17T04:53:24;4.37;;;2.60;;
9914;SDS011;4996;48.746;9.174;2022-10-17T04:55:50;9.07;;;3.10;;
9914;SDS011;4996;48.746;9.174;2022-10-17T04:58:16;2.83;;;2.10;;
9914;SDS011;4996;48.746;9.174;2022-10-17T05:00:42;3.40;;;2.40;;
9914;SDS011;4996;48.746;9.174;2022-10-17T05:03:07;6.80;;;4.53;;
9914;SDS011;4996;48.746;9.174;2022-10-17T05:05:35;8.40;;;3.50;;
9914;SDS011;4996;48.746;9.174;2022-10-17T05:08:02;9.03;;;4.17;;
9914;SDS011;4996;48.746;9.174;2022-10-17T05:10:28;9.90;;;3.20;;
9914;SDS011;4996;48.746;9.174;2022-10-17T05:12:54;3.07;;;2.83;;
9914;SDS011;4996;48.746;9.174;2022-10-17T05:15:19;3.33;;;2.63;;
9914;SDS011;4996;48.746;9.174;2022-10-17T05:17:45;7.57;;;3.20;;
9914;SDS011;4996;48.746;9.174;2022-10-17T05:20:10;4.20;;;3.13;;
9914;SDS011;4996;48.746;9.174;2022-10-17T05:22:36;11.63;;;3.50;;
9914;SDS011;4996;48.746;9.174;2022-10-17T05:25:02;4.80;;;2.83;;
9914;SDS011;4996;48.746;9.174;2022-10-17T05:27:27;4.40;;;2.80;;
9914;SDS011;4996;48.746;9.174;2022-10-17T05:29:53;4.00;;;2.90;;
9914;SDS011;4996;48.746;9.174;2022-10-17T05:32:19;8.80;;;3.00;;
9914;SDS011;4996;48.746;9.174;2022-10-17T05:34:44;4.10;;;2.57;;
9914;SDS011;4996;48.746;9.174;2022-10-17T05:37:10;5.00;;;2.50;;
9914;SDS011;4996;48.746;9.174;2022-10-17T05:39:35;4.27;;;2.43;;
9914;SDS011;4996;48.746;9.174;2022-10-17T05:42:01;4.50;;;3.00;;
9914;SDS011;4996;48.746;9.174;2022-10-17T05:44:26;4.93;;;3.20;;
9914;SDS011;4996;48.746;9.174;2022-10-17T05:46:52;3.50;;;3.10;;
9914;SDS011;4996;48.746;9.174;2022-10-17T05:49:17;6.77;;;2.90;;
9914;SDS011;4996;48.746;9.174;2022-10-17T05:51:43;5.43;;;3.90;;
9914;SDS011;4996;48.746;9.174;2022-10-17T05:54:08;3.50;;;3.20;;
9914;SDS011;4996;48.746;9.174;2022-10-17T05:56:34;3.33;;;2.63;;
9914;SDS011;4996;48.746;9.174;2022-10-17T05:59:00;4.50;;;2.77;;
9914;SDS011;4996;48.746;9.174;2022-10-17T06:01:25;6.30;;;3.23;;
9914;SDS011;4996;48.746;9.174;2022-10-17T06:03:51;3.30;;;2.40;;
9914;SDS011;4996;48.746;9.174;2022-10-17T06:06:17;5.00;;;2.93;;
9914;SDS011;4996;48.746;9.174;2022-10-17T06:08:43;14.83;;;3.07;;
9914;SDS011;4996;48.746;9.174;2022-10-17T06:11:09;4.67;;;3.00;;
9914;SDS011;4996;48.746;9.174;2022-10-17T06:13:36;4.60;;;2.53;;
9914;SDS011;4996;48.746;9.174;2022-10-17T06:16:02;4.03;;;2.90;;
9914;SDS011;4996;48.746;9.174;2022-10-17T06:18:28;3.57;;;3.10;;
9914;SDS011;4996;48.746;9.174;2022-10-17T06:20:53;5.33;;;3.13;;
9914;SDS011;4996;48.746;9.174;2022-10-17T06:23:25;3.63;;;2.30;;
9914;SDS011;4996;48.746;9.174;2022-10-17T06:25:51;3.67;;;2.83;;
9914;SDS011;4996;48.746;9.174;2022-10-17T06:28:17;4.83;;;2.90;;
9914;SDS011;4996;48.746;9.174;2022-10-17T06:30:43;5.70;;;2.50;;
9914;SDS011;4996;48.746;9.174;2022-10-17T06:33:09;3.80;;;2.80;;
9914;SDS011;4996;48.746;9.174;2022-10-17T06:35:34;4.13;;;2.57;;
9914;SDS011;4996;48.746;9.174;2022-10-17T06:38:00;7.83;;;3.00;;
9914;SDS011;4996;48.746;9.174;2022-10-17T06:40:25;7.77;;;3.63;;
9914;SDS011;4996;48.746;9.174;2022-10-17T06:42:51;6.30;;;2.90;;
9914;SDS011;4996;48.746;9.174;2022-10-17T06:45:17;5.70;;;2.33;;
9914;SDS011;4996;48.746;9.174;2022-10-17T06:47:42;5.70;;;3.00;;
9914;SDS011;4996;48.746;9.174;2022-10-17T06:50:08;5.90;;;3.00;;
9914;SDS011;4996;48.746;9.174;2022-10-17T06:52:34;4.47;;;2.70;;
9914;SDS011;4996;48.746;9.174;2022-10-17T06:54:59;8.20;;;3.20;;
9914;SDS011;4996;48.746;9.174;2022-10-17T06:57:25;6.37;;;2.83;;
9914;SDS011;4996;48.746;9.174;2022-10-17T06:59:51;3.43;;;3.03;;
9914;SDS011;4996;48.746;9.174;2022-10-17T07:02:18;5.20;;;2.87;;
9914;SDS011;4996;48.746;9.174;2022-10-17T07:04:44;4.60;;;3.10;;
9914;SDS011;4996;48.746;9.174;2022-10-17T07:07:11;2.83;;;2.53;;
9914;SDS011;4996;48.746;9.174;2022-10-17T07:09:36;4.27;;;2.80;;
9914;SDS011;4996;48.746;9.174;2022-10-17T07:12:02;5.93;;;3.00;;
9914;SDS011;4996;48.746;9.174;2022-10-17T07:14:30;5.63;;;3.77;;
9914;SDS011;4996;48.746;9.174;2022-10-17T07:16:56;7.03;;;3.10;;
9914;SDS011;4996;48.746;9.174;2022-10-17T07:19:23;13.17;;;3.40;;
9914;SDS011;4996;48.746;9.174;2022-10-17T07:21:49;3.40;;;3.00;;
9914;SDS011;4996;48.746;9.174;2022-10-17T07:24:15;6.80;;;3.30;;
9914;SDS011;4996;48.746;9.174;2022-10-17T07:26:40;5.30;;;2.77;;
9914;SDS011;4996;48.746;9.174;2022-10-17T07:29:06;5.80;;;3.50;;
9914;SDS011;4996;48.746;9.174;2022-10-17T07:31:32;6.83;;;2.87;;
9914;SDS011;4996;48.746;9.174;2022-10-17T07:34:00;3.03;;;2.33;;
9914;SDS011;4996;48.746;9.174;2022-10-17T07:36:26;5.40;;;2.73;;
9914;SDS011;4996;48.746;9.174;2022-10-17T07:38:51;9.30;;;2.40;;
9914;SDS011;4996;48.746;9.174;2022-10-17T07:41:17;5.83;;;2.67;;
9914;SDS011;4996;48.746;9.174;2022-10-17T07:43:43;3.93;;;2.33;;
9914;SDS011;4996;48.746;9.174;2022-10-17T07:46:09;5.93;;;2.93;;
9914;SDS011;4996;48.746;9.174;2022-10-17T07:48:35;2.93;;;2.53;;
9914;SDS011;4996;48.746;9.174;2022-10-17T07:51:03;2.73;;;2.20;;
9914;SDS011;4996;48.746;9.174;2022-10-17T07:53:30;5.13;;;2.10;;
9914;SDS011;4996;48.746;9.174;2022-10-17T07:55:56;14.43;;;2.37;;
9914;SDS011;4996;48.746;9.174;2022-10-17T07:58:22;2.90;;;2.30;;
9914;SDS011;4996;48.746;9.174;2022-10-17T08:00:47;4.10;;;2.30;;
9914;SDS011;4996;48.746;9.174;2022-10-17T08:03:14;3.53;;;1.97;;
9914;SDS011;4996;48.746;9.174;2022-10-17T08:05:40;7.00;;;2.00;;
9914;SDS011;4996;48.746;9.174;2022-10-17T08:08:06;3.03;;;2.40;;
9914;SDS011;4996;48.746;9.174;2022-10-17T08:10:31;7.93;;;2.17;;
9914;SDS011;4996;48.746;9.174;2022-10-17T08:12:57;6.93;;;1.80;;
9914;SDS011;4996;48.746;9.174;2022-10-17T08:15:23;2.20;;;1.90;;
9914;SDS011;4996;48.746;9.174;2022-10-17T08:17:50;3.97;;;2.03;;
9914;SDS011;4996;48.746;9.174;2022-10-17T08:20:16;2.90;;;2.60;;
9914;SDS011;4996;48.746;9.174;2022-10-17T08:22:42;3.40;;;1.50;;
9914;SDS011;4996;48.746;9.174;2022-10-17T08:25:08;3.67;;;1.90;;
9914;SDS011;4996;48.746;9.174;2022-10-17T08:27:34;7.20;;;2.23;;
9914;SDS011;4996;48.746;9.174;2022-10-17T08:30:00;2.53;;;1.70;;
9914;SDS011;4996;48.746;9.174;2022-10-17T08:32:26;5.83;;;2.77;;
9914;SDS011;4996;48.746;9.174;2022-10-17T08:34:53;3.03;;;1.87;;
9914;SDS011;4996;48.746;9.174;2022-10-17T08:37:20;2.83;;;1.70;;
9914;SDS011;4996;48.746;9.174;2022-10-17T08:39:47;4.33;;;1.73;;
9914;SDS011;4996;48.746;9.174;2022-10-17T08:45:17;4.37;;;1.80;;
9914;SDS011;4996;48.746;9.174;2022-10-17T08:47:52;2.67;;;2.03;;
9914;SDS011;4996;48.746;9.174;2022-10-17T08:50:30;3.23;;;2.43;;
9914;SDS011;4996;48.746;9.174;2022-10-17T08:53:32;8.70;;;2.27;;
9914;SDS011;4996;48.746;9.174;2022-10-17T08:56:05;3.20;;;1.67;;
9914;SDS011;4996;48.746;9.174;2022-10-17T08:58:37;2.90;;;1.67;;
9914;SDS011;4996;48.746;9.174;2022-10-17T09:01:13;3.50;;;1.83;;
9914;SDS011;4996;48.746;9.174;2022-10-17T09:06:45;2.67;;;1.87;;
9914;SDS011;4996;48.746;9.174;2022-10-17T09:14:52;7.23;;;1.87;;
9914;SDS011;4996;48.746;9.174;2022-10-17T09:22:46;5.70;;;2.43;;
9914;SDS011;4996;48.746;9.174;2022-10-17T09:25:22;5.03;;;2.00;;
9914;SDS011;4996;48.746;9.174;2022-10-17T09:33:12;5.10;;;1.80;;
9914;SDS011;4996;48.746;9.174;2022-10-17T09:35:38;9.93;;;2.60;;
9914;SDS011;4996;48.746;9.174;2022-10-17T09:38:06;5.83;;;2.40;;
9914;SDS011;4996;48.746;9.174;2022-10-17T09:40:39;2.27;;;1.70;;
9914;SDS011;4996;48.746;9.174;2022-10-17T09:43:04;3.20;;;2.10;;
9914;SDS011;4996;48.746;9.174;2022-10-17T09:45:32;2.17;;;1.43;;
9914;SDS011;4996;48.746;9.174;2022-10-17T09:48:17;3.80;;;1.77;;
9914;SDS011;4996;48.746;9.174;2022-10-17T09:50:44;2.33;;;1.43;;
9914;SDS011;4996;48.746;9.174;2022-10-17T09:53:22;2.80;;;1.87;;
9914;SDS011;4996;48.746;9.174;2022-10-17T09:55:52;2.80;;;2.00;;
9914;SDS011;4996;48.746;9.174;2022-10-17T09:58:20;3.73;;;1.77;;
9914;SDS011;4996;48.746;9.174;2022-10-17T10:00:47;7.20;;;3.40;;
9914;SDS011;4996;48.746;9.174;2022-10-17T10:05:59;2.90;;;2.10;;
9914;SDS011;4996;48.746;9.174;2022-10-17T10:08:31;4.20;;;1.90;;
9914;SDS011;4996;48.746;9.174;2022-10-17T10:11:01;3.73;;;2.10;;
9914;SDS011;4996;48.746;9.174;2022-10-17T10:13:29;2.57;;;1.80;;
9914;SDS011;4996;48.746;9.174;2022-10-17T10:16:12;8.53;;;1.67;;
9914;SDS011;4996;48.746;9.174;2022-10-17T10:18:38;1.67;;;1.57;;
9914;SDS011;4996;48.746;9.174;2022-10-17T10:23:44;7.00;;;1.47;;
9914;SDS011;4996;48.746;9.174;2022-10-17T10:26:39;2.10;;;1.60;;
9914;SDS011;4996;48.746;9.174;2022-10-17T10:32:15;1.77;;;1.60;;
9914;SDS011;4996;48.746;9.174;2022-10-17T10:37:21;4.83;;;1.77;;
9914;SDS011;4996;48.746;9.174;2022-10-17T10:39:57;7.53;;;1.70;;
9914;SDS011;4996;48.746;9.174;2022-10-17T10:42:26;2.00;;;1.60;;
9914;SDS011;4996;48.746;9.174;2022-10-17T10:44:57;2.80;;;1.30;;
9914;SDS011;4996;48.746;9.174;2022-10-17T10:47:54;1.23;;;1.10;;
9914;SDS011;4996;48.746;9.174;2022-10-17T10:50:31;2.83;;;1.50;;
9914;SDS011;4996;48.746;9.174;2022-10-17T10:56:34;2.30;;;1.77;;
9914;SDS011;4996;48.746;9.174;2022-10-17T11:04:20;1.73;;;1.50;;
9914;SDS011;4996;48.746;9.174;2022-10-17T11:07:09;6.07;;;1.60;;
9914;SDS011;4996;48.746;9.174;2022-10-17T11:09:54;3.27;;;1.60;;
9914;SDS011;4996;48.746;9.174;2022-10-17T11:12:30;2.50;;;1.77;;
9914;SDS011;4996;48.746;9.174;2022-10-17T11:26:31;3.70;;;1.73;;
9914;SDS011;4996;48.746;9.174;2022-10-17T11:29:01;4.87;;;1.70;;
9914;SDS011;4996;48.746;9.174;2022-10-17T11:31:30;8.17;;;1.30;;
9914;SDS011;4996;48.746;9.174;2022-10-17T11:34:02;3.77;;;1.50;;
9914;SDS011;4996;48.746;9.174;2022-10-17T11:36:34;4.90;;;1.60;;
9914;SDS011;4996;48.746;9.174;2022-10-17T11:39:06;3.50;;;1.40;;
9914;SDS011;4996;48.746;9.174;2022-10-17T11:41:44;3.27;;;1.37;;
9914;SDS011;4996;48.746;9.174;2022-10-17T11:46:45;4.50;;;1.40;;
9914;SDS011;4996;48.746;9.174;2022-10-17T11:49:19;4.90;;;1.90;;
9914;SDS011;4996;48.746;9.174;2022-10-17T11:51:50;3.10;;;1.53;;
9914;SDS011;4996;48.746;9.174;2022-10-17T11:54:38;5.83;;;1.77;;
9914;SDS011;4996;48.746;9.174;2022-10-17T11:57:15;1.93;;;1.10;;
9914;SDS011;4996;48.746;9.174;2022-10-17T12:03:12;1.40;;;1.30;;
9914;SDS011;4996;48.746;9.174;2022-10-17T12:08:38;1.30;;;1.20;;
9914;SDS011;4996;48.746;9.174;2022-10-17T12:11:26;2.73;;;1.57;;
9914;SDS011;4996;48.746;9.174;2022-10-17T12:17:04;5.10;;;1.50;;
9914;SDS011;4996;48.746;9.174;2022-10-17T12:19:51;4.70;;;1.43;;
9914;SDS011;4996;48.746;9.174;2022-10-17T12:22:20;5.57;;;1.90;;
9914;SDS011;4996;48.746;9.174;2022-10-17T12:24:56;3.10;;;1.77;;
9914;SDS011;4996;48.746;9.174;2022-10-17T12:30:04;2.77;;;1.40;;
9914;SDS011;4996;48.746;9.174;2022-10-17T12:35:38;4.17;;;1.47;;
9914;SDS011;4996;48.746;9.174;2022-10-17T12:45:45;3.80;;;1.40;;
9914;SDS011;4996;48.746;9.174;2022-10-17T12:48:39;2.60;;;1.17;;
9914;SDS011;4996;48.746;9.174;2022-10-17T12:51:14;2.07;;;1.40;;
9914;SDS011;4996;48.746;9.174;2022-10-17T12:56:36;2.93;;;1.40;;
9914;SDS011;4996;48.746;9.174;2022-10-17T12:59:12;2.40;;;1.10;;
9914;SDS011;4996;48.746;9.174;2022-10-17T13:01:42;3.10;;;1.63;;
9914;SDS011;4996;48.746;9.174;2022-10-17T13:04:11;2.07;;;1.20;;
9914;SDS011;4996;48.746;9.174;2022-10-17T13:06:42;2.30;;;1.47;;
9914;SDS011;4996;48.746;9.174;2022-10-17T13:09:19;2.57;;;1.40;;
9914;SDS011;4996;48.746;9.174;2022-10-17T13:11:52;2.43;;;2.23;;
9914;SDS011;4996;48.746;9.174;2022-10-17T13:14:19;2.97;;;1.20;;
9914;SDS011;4996;48.746;9.174;2022-10-17T13:19:23;2.47;;;1.33;;
9914;SDS011;4996;48.746;9.174;2022-10-17T13:21:56;2.40;;;1.10;;
9914;SDS011;4996;48.746;9.174;2022-10-17T13:24:32;2.80;;;1.30;;
9914;SDS011;4996;48.746;9.174;2022-10-17T13:27:00;5.10;;;1.27;;
9914;SDS011;4996;48.746;9.174;2022-10-17T13:29:26;5.20;;;2.00;;
9914;SDS011;4996;48.746;9.174;2022-10-17T13:32:00;9.20;;;2.30;;
9914;SDS011;4996;48.746;9.174;2022-10-17T13:34:28;6.63;;;2.40;;
9914;SDS011;4996;48.746;9.174;2022-10-17T13:36:56;5.70;;;2.17;;
9914;SDS011;4996;48.746;9.174;2022-10-17T13:39:26;6.73;;;2.00;;
9914;SDS011;4996;48.746;9.174;2022-10-17T13:41:59;5.03;;;2.40;;
9914;SDS011;4996;48.746;9.174;2022-10-17T13:44:26;7.00;;;1.77;;
9914;SDS011;4996;48.746;9.174;2022-10-17T13:46:56;3.50;;;2.30;;
9914;SDS011;4996;48.746;9.174;2022-10-17T13:52:02;3.73;;;2.00;;
9914;SDS011;4996;48.746;9.174;2022-10-17T13:54:39;6.47;;;2.70;;
9914;SDS011;4996;48.746;9.174;2022-10-17T14:00:01;5.27;;;1.97;;
9914;SDS011;4996;48.746;9.174;2022-10-17T14:02:30;5.70;;;3.80;;
9914;SDS011;4996;48.746;9.174;2022-10-17T14:10:01;2.47;;;2.27;;
9914;SDS011;4996;48.746;9.174;2022-10-17T14:12:30;6.37;;;2.20;;
9914;SDS011;4996;48.746;9.174;2022-10-17T14:14:57;2.40;;;1.97;;
9914;SDS011;4996;48.746;9.174;2022-10-17T14:17:23;2.57;;;1.80;;
9914;SDS011;4996;48.746;9.174;2022-10-17T14:19:52;6.67;;;1.97;;
9914;SDS011;4996;48.746;9.174;2022-10-17T14:22:26;5.90;;;2.00;;
9914;SDS011;4996;48.746;9.174;2022-10-17T14:24:53;4.63;;;1.67;;
9914;SDS011;4996;48.746;9.174;2022-10-17T14:27:26;2.87;;;1.80;;
9914;SDS011;4996;48.746;9.174;2022-10-17T14:29:53;1.93;;;1.83;;
9914;SDS011;4996;48.746;9.174;2022-10-17T14:32:21;2.33;;;1.73;;
9914;SDS011;4996;48.746;9.174;2022-10-17T14:34:51;3.10;;;2.33;;
9914;SDS011;4996;48.746;9.174;2022-10-17T14:37:35;4.33;;;1.77;;
9914;SDS011;4996;48.746;9.174;2022-10-17T14:40:03;3.23;;;1.67;;
9914;SDS011;4996;48.746;9.174;2022-10-17T14:42:29;5.40;;;2.03;;
9914;SDS011;4996;48.746;9.174;2022-10-17T14:44:58;3.60;;;1.90;;
9914;SDS011;4996;48.746;9.174;2022-10-17T14:47:30;3.87;;;1.73;;
9914;SDS011;4996;48.746;9.174;2022-10-17T14:50:05;4.23;;;1.90;;
9914;SDS011;4996;48.746;9.174;2022-10-17T14:52:48;5.80;;;2.20;;
9914;SDS011;4996;48.746;9.174;2022-10-17T14:55:58;3.57;;;2.10;;
9914;SDS011;4996;48.746;9.174;2022-10-17T14:58:26;2.10;;;1.90;;
9914;SDS011;4996;48.746;9.174;2022-10-17T15:00:54;5.37;;;2.30;;
9914;SDS011;4996;48.746;9.174;2022-10-17T15:03:19;13.57;;;1.87;;
9914;SDS011;4996;48.746;9.174;2022-10-17T15:05:45;1.87;;;1.70;;
9914;SDS011;4996;48.746;9.174;2022-10-17T15:08:12;7.90;;;2.20;;
9914;SDS011;4996;48.746;9.174;2022-10-17T15:10:39;5.70;;;3.07;;
9914;SDS011;4996;48.746;9.174;2022-10-17T15:13:09;3.40;;;1.50;;
9914;SDS011;4996;48.746;9.174;2022-10-17T15:15:35;2.13;;;1.67;;
9914;SDS011;4996;48.746;9.174;2022-10-17T15:18:02;5.33;;;2.10;;
9914;SDS011;4996;48.746;9.174;2022-10-17T15:20:28;4.67;;;2.00;;
9914;SDS011;4996;48.746;9.174;2022-10-17T15:22:55;3.13;;;2.83;;
9914;SDS011;4996;48.746;9.174;2022-10-17T15:25:22;3.57;;;2.00;;
9914;SDS011;4996;48.746;9.174;2022-10-17T15:27:48;4.97;;;2.00;;
9914;SDS011;4996;48.746;9.174;2022-10-17T15:30:16;3.40;;;2.10;;
9914;SDS011;4996;48.746;9.174;2022-10-17T15:32:53;3.17;;;1.87;;
9914;SDS011;4996;48.746;9.174;2022-10-17T15:35:19;2.63;;;2.03;;
9914;SDS011;4996;48.746;9.174;2022-10-17T15:37:46;3.23;;;2.00;;
9914;SDS011;4996;48.746;9.174;2022-10-17T15:40:13;3.20;;;2.00;;
9914;SDS011;4996;48.746;9.174;2022-10-17T15:42:41;2.43;;;2.17;;
9914;SDS011;4996;48.746;9.174;2022-10-17T15:45:08;2.30;;;2.10;;
9914;SDS011;4996;48.746;9.174;2022-10-17T15:47:35;3.90;;;2.33;;
9914;SDS011;4996;48.746;9.174;2022-10-17T15:50:02;7.47;;;2.33;;
9914;SDS011;4996;48.746;9.174;2022-10-17T15:52:30;7.20;;;1.83;;
9914;SDS011;4996;48.746;9.174;2022-10-17T15:54:56;3.50;;;2.10;;
9914;SDS011;4996;48.746;9.174;2022-10-17T15:57:23;4.77;;;2.20;;
9914;SDS011;4996;48.746;9.174;2022-10-17T15:59:52;4.43;;;2.50;;
9914;SDS011;4996;48.746;9.174;2022-10-17T16:02:19;4.30;;;2.20;;
9914;SDS011;4996;48.746;9.174;2022-10-17T16:04:46;3.00;;;2.37;;
9914;SDS011;4996;48.746;9.174;2022-10-17T16:07:12;4.50;;;2.13;;
9914;SDS011;4996;48.746;9.174;2022-10-17T16:09:38;5.10;;;2.67;;
9914;SDS011;4996;48.746;9.174;2022-10-17T16:12:05;4.50;;;2.93;;
9914;SDS011;4996;48.746;9.174;2022-10-17T16:14:35;6.47;;;3.80;;
9914;SDS011;4996;48.746;9.174;2022-10-17T16:17:00;7.03;;;3.30;;
9914;SDS011;4996;48.746;9.174;2022-10-17T16:19:26;16.20;;;4.00;;
9914;SDS011;4996;48.746;9.174;2022-10-17T16:21:54;6.13;;;3.43;;
9914;SDS011;4996;48.746;9.174;2022-10-17T16:24:21;6.77;;;4.40;;
9914;SDS011;4996;48.746;9.174;2022-10-17T16:26:47;4.57;;;3.03;;
9914;SDS011;4996;48.746;9.174;2022-10-17T16:29:13;6.20;;;2.90;;
9914;SDS011;4996;48.746;9.174;2022-10-17T16:31:39;5.50;;;3.13;;
9914;SDS011;4996;48.746;9.174;2022-10-17T16:34:07;3.20;;;2.43;;
9914;SDS011;4996;48.746;9.174;2022-10-17T16:36:34;3.03;;;2.10;;
9914;SDS011;4996;48.746;9.174;2022-10-17T16:39:00;4.97;;;2.10;;
9914;SDS011;4996;48.746;9.174;2022-10-17T16:41:26;10.13;;;2.30;;
9914;SDS011;4996;48.746;9.174;2022-10-17T16:43:57;2.47;;;1.97;;
9914;SDS011;4996;48.746;9.174;2022-10-17T16:46:24;2.97;;;2.40;;
9914;SDS011;4996;48.746;9.174;2022-10-17T16:48:51;5.23;;;2.77;;
9914;SDS011;4996;48.746;9.174;2022-10-17T16:51:18;5.50;;;2.50;;
9914;SDS011;4996;48.746;9.174;2022-10-17T16:53:47;7.30;;;2.73;;
9914;SDS011;4996;48.746;9.174;2022-10-17T16:56:17;5.33;;;2.57;;
9914;SDS011;4996;48.746;9.174;2022-10-17T16:58:44;5.10;;;2.27;;
9914;SDS011;4996;48.746;9.174;2022-10-17T17:01:12;10.17;;;2.60;;
9914;SDS011;4996;48.746;9.174;2022-10-17T17:03:40;6.73;;;2.40;;
9914;SDS011;4996;48.746;9.174;2022-10-17T17:06:07;6.63;;;2.10;;
9914;SDS011;4996;48.746;9.174;2022-10-17T17:08:35;5.77;;;2.30;;
9914;SDS011;4996;48.746;9.174;2022-10-17T17:11:01;6.87;;;3.07;;
9914;SDS011;4996;48.746;9.174;2022-10-17T17:13:29;7.17;;;3.10;;
9914;SDS011;4996;48.746;9.174;2022-10-17T17:16:02;10.03;;;3.23;;
9914;SDS011;4996;48.746;9.174;2022-10-17T17:18:35;2.97;;;2.67;;
9914;SDS011;4996;48.746;9.174;2022-10-17T17:21:02;7.23;;;3.30;;
9914;SDS011;4996;48.746;9.174;2022-10-17T17:23:31;4.33;;;2.77;;
9914;SDS011;4996;48.746;9.174;2022-10-17T17:25:58;7.17;;;2.77;;
9914;SDS011;4996;48.746;9.174;2022-10-17T17:28:25;15.63;;;3.13;;
9914;SDS011;4996;48.746;9.174;2022-10-17T17:30:52;4.07;;;3.20;;
9914;SDS011;4996;48.746;9.174;2022-10-17T17:33:18;7.60;;;2.80;;
9914;SDS011;4996;48.746;9.174;2022-10-17T17:35:44;10.40;;;4.10;;
9914;SDS011;4996;48.746;9.174;2022-10-17T17:38:09;8.33;;;3.07;;
9914;SDS011;4996;48.746;9.174;2022-10-17T17:40:35;6.10;;;3.47;;
9914;SDS011;4996;48.746;9.174;2022-10-17T17:43:01;11.03;;;3.50;;
9914;SDS011;4996;48.746;9.174;2022-10-17T17:45:26;5.70;;;3.50;;